Time;durP1;ratioP1;P1;durP2;ratioP2;P2;SDS_P1;SDS_P2;PMS_P1;PMS_P2;Temp;Humidity;BMP_temperature;BMP_pressure;BME280_temperature;BME280_humidity;BME280_pressure;Samples;Min_cycle;Max_cycle;Signal;HPM_P1;HPM_P2
2023/12/02 00:02:17;;;;;;;8.40;5.93;;;;;;;16.53;45.93;101217.28;5029875;28;20133;-38
2023/12/02 00:04:44;;;;;;;8.32;6.13;;;;;;;16.51;45.55;101215.72;5029834;28;20111;-38
2023/12/02 00:07:10;;;;;;;7.70;5.82;;;;;;;16.50;45.29;101214.03;5031525;28;20076;-38
2023/12/02 00:09:37;;;;;;;8.93;6.72;;;;;;;16.47;45.41;101211.63;5028740;28;20429;-38
2023/12/02 00:12:04;;;;;;;9.38;6.32;;;;;;;16.46;46.05;101208.09;5027036;28;20046;-39
2023/12/02 00:14:30;;;;;;;8.43;5.97;;;;;;;16.44;45.51;101215.44;5027879;28;20072;-38
2023/12/02 00:16:57;;;;;;;8.20;6.10;;;;;;;16.43;45.91;101212.88;5028624;28;20053;-38
2023/12/02 00:19:24;;;;;;;8.85;6.55;;;;;;;16.42;45.76;101209.34;5029945;28;20127;-38
2023/12/02 00:21:51;;;;;;;8.77;6.40;;;;;;;16.38;45.42;101215.94;5026532;28;20353;-38
2023/12/02 00:24:18;;;;;;;9.30;6.28;;;;;;;16.35;45.63;101212.69;5028696;28;20053;-38
2023/12/02 00:26:44;;;;;;;9.10;6.90;;;;;;;16.29;45.47;101209.56;5027558;28;20095;-38
2023/12/02 00:29:11;;;;;;;7.85;6.28;;;;;;;16.29;45.54;101204.22;5030178;28;20115;-38
2023/12/02 00:31:37;;;;;;;9.15;6.65;;;;;;;16.33;46.46;101193.25;5029700;28;20088;-38
2023/12/02 00:34:04;;;;;;;9.77;6.88;;;;;;;16.35;46.27;101191.28;5030113;28;20397;-38
2023/12/02 00:36:35;;;;;;;7.07;5.57;;;;;;;16.38;45.28;101194.53;5029996;28;20401;-38
2023/12/02 00:39:02;;;;;;;9.02;6.68;;;;;;;16.42;45.52;101192.44;5031093;28;20115;-38
2023/12/02 00:41:29;;;;;;;8.35;6.50;;;;;;;16.47;45.39;101195.56;5030764;28;20041;-38
2023/12/02 00:43:55;;;;;;;7.10;5.40;;;;;;;16.52;45.59;101188.84;5028430;28;20080;-38
2023/12/02 00:46:22;;;;;;;8.30;6.35;;;;;;;16.57;45.89;101199.13;5026669;28;20093;-38
2023/12/02 00:48:48;;;;;;;8.65;6.07;;;;;;;16.61;45.11;101197.88;5023369;28;20160;-38
2023/12/02 00:51:15;;;;;;;8.13;5.90;;;;;;;16.65;45.53;101191.28;5030999;28;20049;-38
2023/12/02 00:53:42;;;;;;;7.57;5.47;;;;;;;16.68;45.58;101206.19;5029884;28;20053;-38
2023/12/02 00:56:09;;;;;;;7.22;5.72;;;;;;;16.67;45.86;101208.03;5028686;28;20045;-38
2023/12/02 00:58:36;;;;;;;7.28;5.70;;;;;;;16.67;45.95;101205.34;5029482;28;20049;-38
2023/12/02 01:01:07;;;;;;;7.22;5.68;;;;;;;16.65;45.25;101210.00;5027995;28;20068;-38
2023/12/02 01:03:34;;;;;;;7.90;6.07;;;;;;;16.63;45.69;101217.31;5027672;28;20076;-40
2023/12/02 01:06:01;;;;;;;9.45;6.38;;;;;;;16.61;45.36;101208.59;5026904;28;20447;-39
2023/12/02 01:08:27;;;;;;;8.13;5.93;;;;;;;16.60;46.32;101208.69;5027644;28;20057;-40
2023/12/02 01:10:54;;;;;;;6.40;5.28;;;;;;;16.58;45.50;101206.19;5028168;28;20048;-39
2023/12/02 01:13:21;;;;;;;7.05;5.32;;;;;;;16.56;45.17;101210.78;5028904;28;20318;-39
2023/12/02 01:15:47;;;;;;;6.85;5.45;;;;;;;16.54;46.27;101210.09;5030069;28;20133;-39
2023/12/02 01:18:14;;;;;;;7.03;5.60;;;;;;;16.51;45.54;101205.84;5028317;28;20087;-39
2023/12/02 01:20:41;;;;;;;7.40;5.53;;;;;;;16.50;46.40;101211.34;5031930;28;20069;-39
2023/12/02 01:23:07;;;;;;;9.32;6.25;;;;;;;16.47;45.80;101220.47;5028352;28;20046;-39
2023/12/02 01:25:34;;;;;;;7.55;5.78;;;;;;;16.45;45.15;101235.84;5028041;28;20077;-39
2023/12/02 01:28:00;;;;;;;6.20;5.25;;;;;;;16.43;45.23;101231.59;5030043;28;20394;-39
2023/12/02 01:30:27;;;;;;;7.18;5.75;;;;;;;16.41;45.99;101229.06;5027384;28;20059;-39
2023/12/02 01:32:54;;;;;;;7.53;5.57;;;;;;;16.40;45.64;101237.19;5026937;28;20397;-39
2023/12/02 01:35:20;;;;;;;6.90;5.35;;;;;;;16.39;45.87;101232.84;5023998;28;20396;-39
2023/12/02 01:37:47;;;;;;;7.57;5.40;;;;;;;16.40;45.66;101231.84;5027920;28;20049;-39
2023/12/02 01:40:14;;;;;;;7.50;5.70;;;;;;;16.41;46.15;101236.25;5028277;28;20449;-39
2023/12/02 01:42:40;;;;;;;7.43;5.82;;;;;;;16.43;46.20;101243.13;5029468;28;20098;-39
2023/12/02 01:45:07;;;;;;;6.40;5.10;;;;;;;16.47;45.08;101239.22;5027172;28;20056;-39
2023/12/02 01:47:34;;;;;;;9.48;6.55;;;;;;;16.54;45.20;101229.66;5028852;28;20053;-39
2023/12/02 01:50:01;;;;;;;7.97;5.95;;;;;;;16.61;46.01;101240.69;5028333;28;20140;-39
2023/12/02 01:52:28;;;;;;;6.55;5.20;;;;;;;16.68;45.70;101236.50;5027828;28;20053;-39
2023/12/02 01:54:55;;;;;;;8.48;5.70;;;;;;;16.73;44.74;101228.09;5029667;28;20437;-39
2023/12/02 01:57:22;;;;;;;8.73;6.03;;;;;;;16.76;45.26;101236.72;5028215;28;20405;-40
2023/12/02 01:59:54;;;;;;;7.15;5.65;;;;;;;16.80;44.81;101231.91;5027811;28;20074;-39
2023/12/02 02:02:21;;;;;;;7.03;5.30;;;;;;;16.81;45.50;101224.75;5028683;28;20076;-40
2023/12/02 02:04:48;;;;;;;7.00;5.30;;;;;;;16.79;45.15;101219.50;5027405;28;20429;-39
2023/12/02 02:07:17;;;;;;;7.25;5.88;;;;;;;16.76;45.10;101222.44;5024734;28;20360;-40
2023/12/02 02:09:48;;;;;;;7.20;5.55;;;;;;;16.74;45.48;101217.25;5025405;28;20053;-40
2023/12/02 02:12:16;;;;;;;7.20;5.60;;;;;;;16.70;45.49;101223.81;5026657;28;20140;-39
2023/12/02 02:14:43;;;;;;;7.32;5.40;;;;;;;16.68;45.12;101222.25;5025161;28;20122;-40
2023/12/02 02:17:09;;;;;;;9.25;5.68;;;;;;;16.65;45.70;101220.72;5026444;28;20045;-40
2023/12/02 02:19:36;;;;;;;8.55;6.35;;;;;;;16.63;44.69;101222.66;5024850;28;20049;-39
2023/12/02 02:22:03;;;;;;;7.25;5.72;;;;;;;16.61;45.55;101221.97;5029042;28;20045;-40
2023/12/02 02:24:30;;;;;;;7.28;5.60;;;;;;;16.59;44.99;101218.56;5028003;28;20042;-39
2023/12/02 02:26:57;;;;;;;6.90;5.38;;;;;;;16.57;45.63;101215.19;5028038;28;20138;-39
2023/12/02 02:29:23;;;;;;;6.55;5.20;;;;;;;16.55;45.15;101209.09;5027200;28;20099;-40
2023/12/02 02:31:50;;;;;;;7.25;5.55;;;;;;;16.54;45.04;101207.41;5026565;28;20049;-39
2023/12/02 02:34:18;;;;;;;7.45;5.53;;;;;;;16.52;44.74;101220.94;5028173;28;21082;-39
2023/12/02 02:36:45;;;;;;;7.93;5.80;;;;;;;16.50;45.11;101214.03;5031508;28;20132;-39
2023/12/02 02:39:11;;;;;;;6.90;5.55;;;;;;;16.51;45.77;101213.88;5025445;28;20140;-39
2023/12/02 02:41:38;;;;;;;6.72;5.00;;;;;;;16.51;45.33;101210.38;5026691;28;20173;-39
2023/12/02 02:44:05;;;;;;;9.10;6.22;;;;;;;16.52;45.22;101215.59;5028344;28;20171;-39
2023/12/02 02:46:32;;;;;;;7.68;5.05;;;;;;;16.55;45.63;101211.78;5026270;28;20065;-39
2023/12/02 02:48:58;;;;;;;8.73;5.85;;;;;;;16.58;44.70;101216.03;5024286;28;20049;-39
2023/12/02 02:51:25;;;;;;;7.22;5.35;;;;;;;16.60;45.75;101224.75;5028786;28;20068;-39
2023/12/02 02:53:52;;;;;;;6.63;5.05;;;;;;;16.65;44.77;101222.53;5028589;28;20338;-40
2023/12/02 02:56:19;;;;;;;7.22;5.18;;;;;;;16.70;44.99;101217.63;5027090;28;20128;-39
2023/12/02 02:58:46;;;;;;;7.57;5.50;;;;;;;16.74;44.70;101217.25;5024493;28;20049;-40
2023/12/02 03:01:13;;;;;;;7.22;5.35;;;;;;;16.77;44.86;101222.34;5026136;28;20103;-40
2023/12/02 03:03:39;;;;;;;8.50;5.85;;;;;;;16.80;44.65;101223.88;5025658;28;20338;-40
2023/12/02 03:06:07;;;;;;;6.70;5.18;;;;;;;16.83;44.45;101217.41;5028787;28;20437;-39
2023/12/02 03:08:35;;;;;;;8.70;5.57;;;;;;;16.83;44.54;101212.06;5025661;28;20342;-40
2023/12/02 03:11:01;;;;;;;7.50;5.40;;;;;;;16.81;44.58;101214.88;5027406;28;20133;-40
2023/12/02 03:13:28;;;;;;;7.20;5.35;;;;;;;16.77;45.03;101214.31;5029216;28;20045;-40
2023/12/02 03:15:55;;;;;;;6.88;5.15;;;;;;;16.74;44.82;101209.22;5025498;28;20046;-39
2023/12/02 03:18:21;;;;;;;7.25;5.13;;;;;;;16.70;45.23;101210.44;5025494;28;20142;-39
2023/12/02 03:20:48;;;;;;;7.63;5.72;;;;;;;16.67;44.34;101202.69;5030950;28;20125;-39
2023/12/02 03:23:15;;;;;;;5.80;5.07;;;;;;;16.65;44.70;101210.00;5023073;28;20057;-39
2023/12/02 03:25:42;;;;;;;6.68;4.88;;;;;;;16.61;44.85;101213.94;5026315;28;20065;-39
2023/12/02 03:28:08;;;;;;;7.65;5.60;;;;;;;16.59;44.98;101210.53;5027676;28;20045;-40
2023/12/02 03:30:35;;;;;;;6.22;5.05;;;;;;;16.56;45.04;101212.63;5029042;28;20515;-39
2023/12/02 03:33:02;;;;;;;6.15;4.95;;;;;;;16.52;44.45;101220.94;5027177;28;20050;-40
2023/12/02 03:35:29;;;;;;;7.28;5.60;;;;;;;16.49;44.79;101225.72;5026748;28;20049;-40
2023/12/02 03:37:55;;;;;;;6.30;5.07;;;;;;;16.47;44.63;101214.28;5025385;28;20459;-40
2023/12/02 03:40:22;;;;;;;7.78;5.22;;;;;;;16.44;44.67;101227.94;5024849;28;20046;-40
2023/12/02 03:42:48;;;;;;;7.45;5.25;;;;;;;16.42;45.02;101224.56;5025102;28;20048;-39
2023/12/02 03:45:15;;;;;;;7.45;5.45;;;;;;;16.39;45.17;101228.34;5024471;28;20104;-40
2023/12/02 03:47:42;;;;;;;7.93;5.63;;;;;;;16.38;44.98;101232.00;5024392;28;20433;-40
2023/12/02 03:50:09;;;;;;;8.70;5.88;;;;;;;16.39;45.53;101230.16;5026068;28;20056;-40
2023/12/02 03:52:36;;;;;;;7.35;5.75;;;;;;;16.40;45.54;101231.84;5027447;28;20053;-39
2023/12/02 03:55:02;;;;;;;7.03;5.63;;;;;;;16.42;44.62;101224.56;5024073;28;20104;-39
2023/12/02 03:57:29;;;;;;;7.28;5.82;;;;;;;16.46;44.61;101220.63;5029601;28;20041;-40
2023/12/02 03:59:57;;;;;;;6.82;4.80;;;;;;;16.49;44.71;101220.38;5031094;28;20103;-40
2023/12/02 04:02:24;;;;;;;6.80;5.53;;;;;;;16.53;45.18;101227.16;5043734;28;20144;-39
2023/12/02 04:04:51;;;;;;;6.50;5.10;;;;;;;16.59;44.71;101237.28;5029121;28;20049;-39
2023/12/02 04:07:18;;;;;;;7.80;5.72;;;;;;;16.62;44.37;101230.84;5042971;28;20053;-39
2023/12/02 04:09:46;;;;;;;7.68;5.50;;;;;;;16.67;45.17;101241.97;5027949;28;20045;-39
2023/12/02 04:12:13;;;;;;;6.55;5.22;;;;;;;16.67;44.30;101240.16;5034852;28;20041;-39
2023/12/02 04:14:40;;;;;;;7.18;5.72;;;;;;;16.69;44.51;101245.38;5030284;28;20459;-39
2023/12/02 04:17:08;;;;;;;7.32;5.55;;;;;;;16.67;44.92;101250.84;5031732;28;20045;-40
2023/12/02 04:19:34;;;;;;;6.97;5.40;;;;;;;16.63;44.62;101246.75;5033310;28;20115;-40
2023/12/02 04:22:01;;;;;;;6.78;5.13;;;;;;;16.61;44.34;101255.91;5029358;28;20134;-39
2023/12/02 04:24:28;;;;;;;6.68;4.70;;;;;;;16.59;44.26;101257.88;5026628;28;20053;-39
2023/12/02 04:26:55;;;;;;;7.40;5.72;;;;;;;16.56;44.73;101266.16;5024893;28;20042;-39
2023/12/02 04:29:22;;;;;;;7.20;5.53;;;;;;;16.52;44.21;101261.09;5031318;28;20433;-39
2023/12/02 04:31:48;;;;;;;7.85;5.53;;;;;;;16.49;44.29;101263.19;5029717;28;20485;-39
2023/12/02 04:34:15;;;;;;;8.77;5.82;;;;;;;16.46;44.35;101266.13;5027289;28;20465;-39
2023/12/02 04:36:43;;;;;;;7.85;5.75;;;;;;;16.44;44.49;101268.94;5030673;28;20044;-39
2023/12/02 04:39:11;;;;;;;6.45;5.38;;;;;;;16.43;44.78;101274.41;5029015;28;20046;-40
2023/12/02 04:41:38;;;;;;;6.30;5.20;;;;;;;16.39;44.73;101271.13;5027747;28;20058;-39
2023/12/02 04:44:06;;;;;;;6.10;5.07;;;;;;;16.37;44.77;101272.28;5031541;28;20491;-39
2023/12/02 04:46:32;;;;;;;7.35;5.53;;;;;;;16.34;45.19;101267.19;5028523;28;20135;-40
2023/12/02 04:48:59;;;;;;;6.55;5.13;;;;;;;16.33;45.03;101273.50;5028534;28;20057;-40
2023/12/02 04:51:26;;;;;;;6.63;5.10;;;;;;;16.30;45.01;101266.59;5031697;28;20049;-39
2023/12/02 04:53:52;;;;;;;6.20;5.05;;;;;;;16.30;45.52;101271.94;5031363;28;20052;-39
2023/12/02 04:56:19;;;;;;;8.45;5.18;;;;;;;16.33;44.52;101274.34;5031205;28;20099;-39
2023/12/02 04:58:45;;;;;;;6.68;5.43;;;;;;;16.37;45.00;101282.97;5024590;28;20117;-39
2023/12/02 05:01:12;;;;;;;7.18;4.70;;;;;;;16.39;44.34;101283.66;5030427;28;20080;-40
2023/12/02 05:03:39;;;;;;;6.22;5.00;;;;;;;16.43;44.82;101280.59;5030788;28;20052;-39
2023/12/02 05:06:08;;;;;;;7.82;5.65;;;;;;;16.48;45.08;101285.53;5030965;28;20046;-39
2023/12/02 05:08:34;;;;;;;6.72;5.25;;;;;;;16.51;44.40;101285.28;5025464;28;20049;-40
2023/12/02 05:11:01;;;;;;;7.18;5.43;;;;;;;16.54;44.52;101293.91;5030835;28;20103;-40
2023/12/02 05:13:27;;;;;;;8.07;5.47;;;;;;;16.57;44.78;101287.44;5029729;28;20099;-40
2023/12/02 05:15:54;;;;;;;6.80;5.10;;;;;;;16.59;44.47;101288.13;5029621;28;20046;-39
2023/12/02 05:18:20;;;;;;;7.28;5.28;;;;;;;16.58;44.83;101294.47;5030608;28;20053;-39
2023/12/02 05:20:47;;;;;;;6.93;5.18;;;;;;;16.58;44.68;101288.28;5029940;28;20045;-39
2023/12/02 05:23:14;;;;;;;7.85;5.97;;;;;;;16.56;43.92;101290.22;5025779;28;20076;-40
2023/12/02 05:25:40;;;;;;;7.35;5.50;;;;;;;16.53;44.90;101294.03;5027540;28;20049;-39
2023/12/02 05:28:07;;;;;;;6.78;5.20;;;;;;;16.50;44.44;101291.63;5028209;28;20069;-40
2023/12/02 05:30:34;;;;;;;7.78;5.72;;;;;;;16.47;44.33;101292.72;5026970;28;20061;-39
2023/12/02 05:33:01;;;;;;;7.57;5.55;;;;;;;16.45;45.18;101288.50;5027186;28;20049;-40
2023/12/02 05:35:28;;;;;;;7.70;5.50;;;;;;;16.42;44.95;101286.94;5027488;28;20049;-40
2023/12/02 05:37:54;;;;;;;8.10;5.93;;;;;;;16.40;44.17;101296.94;5029847;28;20081;-40
2023/12/02 05:40:21;;;;;;;7.28;5.88;;;;;;;16.38;44.73;101295.34;5028499;28;20393;-40
2023/12/02 05:42:48;;;;;;;6.95;5.35;;;;;;;16.36;44.79;101294.63;5027508;28;20060;-39
2023/12/02 05:45:14;;;;;;;6.57;5.55;;;;;;;16.32;44.91;101294.03;5029248;28;20103;-40
2023/12/02 05:47:41;;;;;;;7.13;5.72;;;;;;;16.32;45.24;101296.72;5030012;28;20049;-40
2023/12/02 05:50:08;;;;;;;8.13;6.15;;;;;;;16.32;44.49;101298.53;5027808;28;20050;-39
2023/12/02 05:52:35;;;;;;;8.85;6.28;;;;;;;16.33;45.17;101302.94;5026431;28;20045;-39
2023/12/02 05:55:01;;;;;;;6.93;5.43;;;;;;;16.34;44.13;101307.31;5027307;28;20049;-39
2023/12/02 05:57:28;;;;;;;7.63;5.75;;;;;;;16.35;44.33;101303.63;5029690;28;20041;-40
2023/12/02 05:59:54;;;;;;;7.13;5.55;;;;;;;16.37;44.80;101307.03;5027078;28;20103;-40
2023/12/02 06:02:21;;;;;;;8.95;6.53;;;;;;;16.39;44.62;101313.94;5029275;28;20458;-39
2023/12/02 06:04:48;;;;;;;6.53;5.20;;;;;;;16.42;43.95;101312.84;5027356;28;20053;-39
2023/12/02 06:07:15;;;;;;;8.10;6.22;;;;;;;16.43;44.05;101317.22;5025366;28;20100;-39
2023/12/02 06:09:43;;;;;;;7.80;5.68;;;;;;;16.45;44.30;101316.09;5027074;28;20187;-40
2023/12/02 06:12:10;;;;;;;8.38;6.38;;;;;;;16.45;44.83;101312.59;5026342;28;20046;-40
2023/12/02 06:14:37;;;;;;;7.38;5.70;;;;;;;16.46;44.14;101311.59;5027660;28;20053;-40
2023/12/02 06:17:03;;;;;;;8.93;6.50;;;;;;;16.44;44.08;101303.72;5029025;28;20053;-39
2023/12/02 06:19:30;;;;;;;7.72;6.07;;;;;;;16.42;44.65;101311.00;5031236;28;20060;-40
2023/12/02 06:21:57;;;;;;;6.72;5.55;;;;;;;16.39;44.83;101315.78;5029416;28;20133;-40
2023/12/02 06:24:23;;;;;;;7.28;5.57;;;;;;;16.38;44.18;101327.47;5027441;28;20050;-39
2023/12/02 06:26:50;;;;;;;7.50;5.65;;;;;;;16.36;43.93;101332.06;5024711;28;20060;-39
2023/12/02 06:29:17;;;;;;;8.10;5.93;;;;;;;16.33;44.34;101330.53;5027029;28;20127;-39
2023/12/02 06:31:43;;;;;;;7.25;6.00;;;;;;;16.32;43.96;101339.50;5024344;28;20042;-39
2023/12/02 06:34:10;;;;;;;7.88;6.03;;;;;;;16.28;45.03;101336.28;5024221;28;20053;-40
2023/12/02 06:36:36;;;;;;;8.50;5.55;;;;;;;16.26;44.82;101330.19;5025226;28;21144;-39
2023/12/02 06:39:04;;;;;;;8.27;6.22;;;;;;;16.24;44.49;101348.22;5028339;28;20531;-40
2023/12/02 06:41:31;;;;;;;9.10;6.07;;;;;;;16.22;44.85;101343.97;5029923;28;20409;-40
2023/12/02 06:43:57;;;;;;;7.00;5.43;;;;;;;16.22;45.10;101346.63;5024598;28;20476;-40
2023/12/02 06:46:24;;;;;;;8.00;6.20;;;;;;;16.21;44.34;101345.78;5025082;28;20050;-39
2023/12/02 06:48:51;;;;;;;8.48;6.25;;;;;;;16.23;45.23;101353.66;5029196;28;20049;-39
2023/12/02 06:51:17;;;;;;;8.05;6.25;;;;;;;16.25;44.27;101362.44;5025245;28;20049;-39
2023/12/02 06:53:44;;;;;;;7.97;5.82;;;;;;;16.29;45.06;101364.72;5026993;28;20049;-39
2023/12/02 06:56:18;;;;;;;8.38;5.75;;;;;;;16.36;44.36;101374.88;5026802;28;20092;-39
2023/12/02 06:58:45;;;;;;;12.85;5.80;;;;;;;16.43;44.23;101378.75;5027198;28;20123;-39
2023/12/02 07:01:24;;;;;;;8.30;5.70;;;;;;;16.50;44.20;101379.94;5028076;28;20102;-39
2023/12/02 07:03:50;;;;;;;6.40;5.53;;;;;;;16.61;44.89;101384.38;5026607;28;20326;-39
2023/12/02 07:06:17;;;;;;;8.05;5.95;;;;;;;16.69;44.06;101390.75;5026443;28;20440;-39
2023/12/02 07:08:44;;;;;;;6.88;5.28;;;;;;;16.78;44.24;101392.66;5024564;28;20045;-39
2023/12/02 07:11:11;;;;;;;7.97;5.63;;;;;;;16.88;43.87;101397.22;5029104;28;21039;-39
2023/12/02 07:13:37;;;;;;;7.32;5.88;;;;;;;16.95;43.94;101399.25;5028978;28;20442;-39
2023/12/02 07:16:04;;;;;;;7.03;5.45;;;;;;;17.05;43.69;101403.81;5027598;28;20425;-39
2023/12/02 07:18:31;;;;;;;7.80;6.25;;;;;;;17.13;43.86;101398.63;5029075;28;20049;-39
2023/12/02 07:20:58;;;;;;;7.65;5.50;;;;;;;17.19;43.49;101404.28;5028841;28;20437;-39
2023/12/02 07:23:31;;;;;;;7.78;5.97;;;;;;;17.27;43.69;101408.97;5024264;28;20345;-38
2023/12/02 07:25:58;;;;;;;8.00;5.57;;;;;;;17.36;43.41;101407.31;5028859;28;20099;-38
2023/12/02 07:28:26;;;;;;;6.85;5.13;;;;;;;17.41;42.94;101411.31;5023628;28;20435;-38
2023/12/02 07:30:52;;;;;;;7.50;5.70;;;;;;;17.47;42.98;101415.25;5027503;28;20085;-38
2023/12/02 07:33:19;;;;;;;7.00;5.53;;;;;;;17.51;42.57;101409.47;5029330;28;20064;-38
2023/12/02 07:35:46;;;;;;;6.90;5.20;;;;;;;17.57;42.99;101417.94;5031705;28;20045;-38
2023/12/02 07:38:13;;;;;;;7.00;5.32;;;;;;;17.61;42.81;101420.25;5026680;28;20072;-39
2023/12/02 07:40:39;;;;;;;6.85;5.07;;;;;;;17.66;42.72;101414.47;5031569;28;20057;-38
2023/12/02 07:43:06;;;;;;;6.57;4.72;;;;;;;17.68;42.53;101413.34;5030466;28;20437;-38
2023/12/02 07:45:33;;;;;;;6.30;5.03;;;;;;;17.70;42.77;101415.91;5030077;28;20045;-39
2023/12/02 07:47:59;;;;;;;6.53;5.10;;;;;;;17.72;42.75;101412.06;5026977;28;20461;-39
2023/12/02 07:50:26;;;;;;;8.38;6.05;;;;;;;17.75;42.53;101419.03;5030464;28;20469;-39
2023/12/02 07:52:53;;;;;;;7.72;5.80;;;;;;;17.78;42.65;101425.97;5031296;28;20085;-39
2023/12/02 07:55:20;;;;;;;7.90;5.90;;;;;;;17.79;42.83;101420.44;5031578;28;20392;-38
2023/12/02 07:57:46;;;;;;;8.55;6.05;;;;;;;17.79;42.78;101425.81;5028550;28;20382;-39
2023/12/02 08:00:13;;;;;;;7.30;6.00;;;;;;;17.76;42.51;101429.59;5029090;28;20049;-38
2023/12/02 08:02:40;;;;;;;8.30;6.53;;;;;;;17.72;42.67;101441.56;5030541;28;20111;-38
2023/12/02 08:05:07;;;;;;;9.43;6.25;;;;;;;17.66;42.83;101435.91;5022034;28;20441;-39
2023/12/02 08:07:37;;;;;;;8.52;6.45;;;;;;;17.58;42.75;101450.00;5028297;28;20149;-38
2023/12/02 08:10:04;;;;;;;8.98;6.88;;;;;;;17.50;43.10;101457.88;5027139;28;20053;-38
2023/12/02 08:12:30;;;;;;;10.02;7.25;;;;;;;17.41;43.36;101451.50;5028242;28;20183;-39
2023/12/02 08:14:57;;;;;;;9.40;6.63;;;;;;;17.31;43.57;101447.91;5027860;28;20072;-39
2023/12/02 08:17:23;;;;;;;9.68;7.13;;;;;;;17.22;43.34;101465.63;5029600;28;20420;-39
2023/12/02 08:19:50;;;;;;;9.88;7.47;;;;;;;17.16;43.90;101462.63;5026810;28;20054;-39
2023/12/02 08:22:21;;;;;;;9.45;6.70;;;;;;;17.09;44.47;101459.66;5030401;28;20056;-39
2023/12/02 08:24:48;;;;;;;11.32;8.10;;;;;;;17.05;43.28;101457.38;5026875;28;20069;-39
2023/12/02 08:27:14;;;;;;;11.18;8.43;;;;;;;16.99;44.31;101456.06;5030529;28;20438;-39
2023/12/02 08:29:41;;;;;;;11.52;8.23;;;;;;;16.94;44.31;101458.28;5027188;28;20049;-39
2023/12/02 08:32:08;;;;;;;11.85;7.95;;;;;;;16.90;44.38;101464.88;5025957;28;20122;-39
2023/12/02 08:34:34;;;;;;;12.85;8.95;;;;;;;16.86;44.56;101464.31;5027334;28;20081;-39
2023/12/02 08:37:01;;;;;;;11.95;9.45;;;;;;;16.83;44.00;101467.22;5027188;28;20134;-39
2023/12/02 08:39:28;;;;;;;13.80;9.77;;;;;;;16.80;43.61;101463.97;5026495;28;20123;-39
2023/12/02 08:41:54;;;;;;;12.95;9.63;;;;;;;16.76;44.56;101461.56;5028530;28;20140;-39
2023/12/02 08:44:22;;;;;;;16.63;11.10;;;;;;;16.73;44.38;101459.16;5024991;28;20143;-39
2023/12/02 08:46:52;;;;;;;15.32;10.90;;;;;;;16.69;43.97;101452.31;5027661;28;20195;-39
2023/12/02 08:49:19;;;;;;;17.17;11.13;;;;;;;16.67;43.62;101440.88;5026352;28;20106;-39
2023/12/02 08:51:46;;;;;;;18.45;12.60;;;;;;;16.63;43.93;101449.31;5026079;28;20084;-39
2023/12/02 08:54:13;;;;;;;18.23;12.63;;;;;;;16.61;44.47;101462.81;5040102;28;20073;-39
2023/12/02 08:56:39;;;;;;;18.45;12.40;;;;;;;16.58;44.37;101460.41;5028029;28;20095;-39
2023/12/02 08:59:06;;;;;;;17.92;11.98;;;;;;;16.56;44.50;101470.38;5029658;28;20045;-39
2023/12/02 09:01:33;;;;;;;17.20;12.18;;;;;;;16.56;44.68;101470.38;5028226;28;20491;-39
2023/12/02 09:03:59;;;;;;;18.95;12.75;;;;;;;16.54;44.37;101469.66;5026137;28;20049;-39
2023/12/02 09:06:26;;;;;;;21.92;14.48;;;;;;;16.53;45.28;101484.88;5025006;28;20045;-38
2023/12/02 09:08:53;;;;;;;20.63;13.68;;;;;;;16.52;44.83;101479.63;5026824;28;20045;-38
2023/12/02 09:11:20;;;;;;;21.48;13.80;;;;;;;16.51;45.03;101473.44;5027410;28;20056;-38
2023/12/02 09:13:47;;;;;;;22.17;14.75;;;;;;;16.50;44.49;101479.78;5027216;28;20412;-39
2023/12/02 09:16:22;;;;;;;21.05;13.75;;;;;;;16.49;45.06;101487.94;5028279;28;20049;-39
2023/12/02 09:18:50;;;;;;;24.00;14.82;;;;;;;16.49;44.75;101487.94;5025227;28;20380;-39
2023/12/02 09:21:34;;;;;;;21.10;14.85;;;;;;;16.47;44.87;101489.88;5028173;28;20064;-38
2023/12/02 09:24:05;;;;;;;20.90;14.63;;;;;;;16.46;44.92;101498.88;5029522;28;20156;-38
2023/12/02 09:26:40;;;;;;;23.80;15.45;;;;;;;16.42;44.63;101500.13;5029059;28;20165;-38
2023/12/02 09:29:07;;;;;;;23.63;15.85;;;;;;;16.40;44.53;101516.31;5024749;28;20045;-38
2023/12/02 09:31:34;;;;;;;22.88;15.55;;;;;;;16.37;44.25;101513.03;5026283;28;20140;-38
2023/12/02 09:34:02;;;;;;;22.02;15.02;;;;;;;16.33;44.98;101519.63;5026078;28;20264;-38
2023/12/02 09:36:33;;;;;;;24.65;16.30;;;;;;;16.25;44.78;101518.41;5029638;28;20052;-38
2023/12/02 09:39:25;;;;;;;26.73;17.05;;;;;;;16.15;44.93;101520.13;5025932;28;20529;-38
2023/12/02 09:41:57;;;;;;;25.23;17.10;;;;;;;16.13;44.75;101529.25;5012872;28;20445;-38
2023/12/02 09:44:44;;;;;;;25.75;16.77;;;;;;;16.04;44.83;101521.00;5023942;28;20045;-39
2023/12/02 09:47:20;;;;;;;27.60;18.10;;;;;;;15.97;45.22;101517.13;5024823;28;20099;-38
2023/12/02 09:50:09;;;;;;;27.33;18.05;;;;;;;15.89;45.06;101526.75;5026055;28;20120;-38
2023/12/02 09:53:03;;;;;;;29.70;18.88;;;;;;;15.82;44.75;101526.38;5025368;28;20046;-38
2023/12/02 09:55:47;;;;;;;30.65;18.27;;;;;;;15.74;45.11;101526.13;5029129;28;20061;-38
2023/12/02 09:58:24;;;;;;;29.15;18.67;;;;;;;15.65;45.62;101519.69;5028253;28;20049;-38
2023/12/02 10:01:04;;;;;;;25.88;17.45;;;;;;;15.57;45.68;101518.56;5029135;28;20053;-38
2023/12/02 10:03:49;;;;;;;27.75;18.15;;;;;;;15.51;46.37;101519.91;5026326;28;20052;-38
2023/12/02 10:06:55;;;;;;;26.98;17.77;;;;;;;15.41;46.70;101530.47;5023324;28;20057;-38
2023/12/02 10:09:39;;;;;;;24.92;16.65;;;;;;;15.38;46.91;101529.84;5024624;28;20471;-38
2023/12/02 10:12:22;;;;;;;28.35;17.45;;;;;;;15.32;46.69;101523.19;5026300;28;20105;-38
2023/12/02 10:14:59;;;;;;;28.88;18.52;;;;;;;15.29;46.42;101534.09;5025312;28;20280;-38
2023/12/02 10:17:26;;;;;;;28.27;18.40;;;;;;;15.25;46.63;101538.81;5025803;28;20064;-38
2023/12/02 10:20:00;;;;;;;27.05;17.35;;;;;;;15.22;47.07;101533.69;5025193;28;20049;-38
2023/12/02 10:22:29;;;;;;;26.52;17.98;;;;;;;15.19;47.10;101531.25;5024836;28;20046;-38
2023/12/02 10:25:13;;;;;;;26.40;17.85;;;;;;;15.18;47.50;101536.72;5025317;28;20053;-38
2023/12/02 10:27:41;;;;;;;27.17;17.85;;;;;;;15.17;46.66;101532.38;5028654;28;20111;-38
2023/12/02 10:30:18;;;;;;;26.25;16.60;;;;;;;15.16;47.02;101533.34;5025233;28;20504;-38
2023/12/02 10:33:17;;;;;;;26.08;17.67;;;;;;;15.14;46.92;101533.44;5024161;28;20445;-38
2023/12/02 10:35:47;;;;;;;28.88;18.63;;;;;;;15.14;47.04;101533.44;5025374;28;20406;-39
2023/12/02 10:38:22;;;;;;;28.15;18.45;;;;;;;15.13;47.76;101533.56;5023916;28;20049;-38
2023/12/02 10:41:04;;;;;;;24.92;16.80;;;;;;;15.14;47.16;101527.25;5023235;28;20045;-38
2023/12/02 10:43:39;;;;;;;28.27;18.17;;;;;;;15.13;48.01;101529.06;5024576;28;20041;-38
2023/12/02 10:46:07;;;;;;;27.38;18.52;;;;;;;15.14;47.69;101528.09;5022963;28;20068;-38
2023/12/02 10:48:39;;;;;;;29.65;19.67;;;;;;;15.14;48.07;101520.09;5026906;28;20049;-38
2023/12/02 10:51:08;;;;;;;30.13;19.75;;;;;;;15.15;47.71;101513.78;5023467;28;20131;-39
2023/12/02 10:53:37;;;;;;;30.98;20.08;;;;;;;15.17;47.65;101509.19;5024173;28;20456;-38
2023/12/02 10:56:16;;;;;;;32.20;21.33;;;;;;;15.17;48.63;101503.00;5026871;28;20142;-38
2023/12/02 10:58:44;;;;;;;29.15;18.80;;;;;;;15.19;47.82;101501.03;5021025;28;20120;-38
2023/12/02 11:01:10;;;;;;;28.38;19.15;;;;;;;15.21;48.04;101499.97;5019763;28;20467;-38
2023/12/02 11:03:55;;;;;;;29.30;19.45;;;;;;;15.24;48.24;101501.56;5022940;28;20205;-38
2023/12/02 11:06:31;;;;;;;32.80;20.60;;;;;;;15.26;47.90;101500.44;5030391;28;20057;-38
2023/12/02 11:09:00;;;;;;;33.25;20.50;;;;;;;15.27;48.66;101498.63;5026367;28;20176;-38
2023/12/02 11:11:45;;;;;;;32.80;20.73;;;;;;;15.25;48.12;101506.75;5026820;28;20057;-38
2023/12/02 11:14:17;;;;;;;32.63;21.02;;;;;;;15.31;48.78;101510.75;5025519;28;20049;-39
2023/12/02 11:16:51;;;;;;;35.22;21.77;;;;;;;15.36;48.45;101508.63;5028610;28;20080;-39
2023/12/02 11:19:18;;;;;;;;;;;;;;;15.41;49.44;101511.75;5029444;28;20119;-39
2023/12/02 11:21:57;;;;;;;33.85;21.02;;;;;;;15.49;48.71;101504.00;5031484;28;19967;-39
2023/12/02 11:24:29;;;;;;;34.72;21.55;;;;;;;15.54;48.97;101511.66;5028958;28;20061;-39
2023/12/02 11:27:08;;;;;;;33.50;21.70;;;;;;;15.58;48.80;101507.75;5020328;28;20053;-39
2023/12/02 11:29:50;;;;;;;33.35;21.67;;;;;;;15.62;48.90;101501.19;5027869;28;20091;-39